Terminal Aerodrome Forecast
Issued by NWS Topeka, KS

Home | Current Version | Previous Version | Text Only | Print | Product List | Glossary On
Versions: 1 2 3 4 5 6 7 8 9 10 11 12 13 14
626
FTUS43 KTOP 100532
TAFTOP
TAF
KTOP 100532Z 1006/1106 13003KT P6SM BKN040
     FM101900 15011KT P6SM SCT040 SCT250
     FM110300 16008KT P6SM SCT035 BKN250 WS020/19035KT=

USA.gov is the U.S. government's official web portal to all federal, state and local government web resources and services.